createdAt,value
2023-02-23T00:01:53.184Z,12.85
2023-02-23T00:04:20.953Z,12.80
2023-02-23T00:06:48.693Z,13.18
2023-02-23T00:09:22.807Z,12.98
2023-02-23T00:11:54.224Z,13.10
2023-02-23T00:14:24.556Z,13.98
2023-02-23T00:16:52.106Z,13.77
2023-02-23T00:19:20.128Z,13.57
2023-02-23T00:21:47.689Z,13.48
2023-02-23T00:24:15.787Z,13.23
2023-02-23T00:26:43.494Z,13.07
2023-02-23T00:29:19.010Z,14.10
2023-02-23T00:31:48.300Z,12.93
2023-02-23T00:34:16.900Z,13.82
2023-02-23T00:36:44.511Z,13.02
2023-02-23T00:39:28.870Z,14.07
2023-02-23T00:41:56.930Z,13.13
2023-02-23T00:44:25.268Z,13.05
2023-02-23T00:46:53.268Z,13.65
2023-02-23T00:49:22.009Z,13.55
2023-02-23T00:51:49.765Z,13.80
2023-02-23T00:54:17.802Z,13.20
2023-02-23T00:56:45.863Z,14.52
2023-02-23T00:59:14.105Z,13.02
2023-02-23T01:01:42.103Z,14.60
2023-02-23T01:04:10.339Z,14.07
2023-02-23T01:06:38.362Z,13.88
2023-02-23T01:09:10.229Z,13.60
2023-02-23T01:11:41.300Z,15.35
2023-02-23T01:14:10.565Z,15.30
2023-02-23T01:16:38.884Z,14.50
2023-02-23T01:19:07.058Z,14.68
2023-02-23T01:21:36.213Z,14.43
2023-02-23T01:24:04.700Z,14.68
2023-02-23T01:26:36.531Z,13.93
2023-02-23T01:31:31.860Z,13.55
2023-02-23T01:34:01.315Z,14.98
2023-02-23T01:36:33.638Z,14.95
2023-02-23T01:39:01.525Z,15.40
2023-02-23T01:41:32.988Z,14.15
2023-02-23T01:44:03.752Z,14.45
2023-02-23T01:46:32.991Z,15.93
2023-02-23T01:49:01.840Z,14.45
2023-02-23T01:51:32.403Z,15.75
2023-02-23T01:54:30.897Z,15.18
2023-02-23T01:57:00.386Z,15.45
2023-02-23T01:59:34.195Z,14.90
2023-02-23T02:02:05.146Z,15.48
2023-02-23T02:04:44.688Z,15.40
2023-02-23T02:07:18.015Z,15.65
2023-02-23T02:10:09.005Z,16.10
2023-02-23T02:12:47.205Z,15.10
2023-02-23T02:15:18.260Z,15.38
2023-02-23T02:18:09.022Z,15.32
2023-02-23T02:20:42.882Z,14.95
2023-02-23T02:25:40.410Z,15.80
2023-02-23T02:28:26.049Z,15.70
2023-02-23T02:31:13.142Z,15.35
2023-02-23T02:34:00.129Z,16.30
2023-02-23T02:36:47.314Z,15.43
2023-02-23T02:39:23.688Z,15.85
2023-02-23T02:41:56.925Z,16.02
2023-02-23T02:44:44.725Z,16.88
2023-02-23T02:47:17.918Z,15.93
2023-02-23T02:50:06.768Z,16.35
2023-02-23T02:52:46.706Z,16.05
2023-02-23T02:55:16.543Z,15.95
2023-02-23T02:57:46.683Z,16.55
2023-02-23T03:00:37.895Z,16.13
2023-02-23T03:03:24.052Z,15.52
2023-02-23T03:06:12.449Z,15.80
2023-02-23T03:09:03.529Z,16.63
2023-02-23T03:12:03.049Z,16.80
2023-02-23T03:14:53.619Z,15.25
2023-02-23T03:17:40.029Z,15.73
2023-02-23T03:20:31.833Z,15.30
2023-02-23T03:23:25.656Z,15.77
2023-02-23T03:26:21.817Z,16.40
2023-02-23T03:29:11.008Z,16.38
2023-02-23T03:32:05.006Z,17.08
2023-02-23T03:34:55.693Z,17.65
2023-02-23T03:37:45.012Z,15.35
2023-02-23T03:40:31.785Z,15.82
2023-02-23T03:43:19.195Z,16.42
2023-02-23T03:46:07.496Z,16.90
2023-02-23T03:48:54.384Z,17.30
2023-02-23T03:51:42.099Z,15.85
2023-02-23T03:54:31.507Z,16.45
2023-02-23T03:57:19.020Z,16.60
2023-02-23T04:00:13.179Z,16.48
2023-02-23T04:03:04.790Z,16.50
2023-02-23T04:05:51.100Z,16.67
2023-02-23T04:08:38.099Z,17.33
2023-02-23T04:11:34.043Z,16.30
2023-02-23T04:14:02.867Z,16.95
2023-02-23T04:16:31.248Z,16.90
2023-02-23T04:18:58.902Z,16.52
2023-02-23T04:21:26.457Z,16.70
2023-02-23T04:23:54.069Z,17.13
2023-02-23T04:26:21.657Z,16.77
2023-02-23T04:28:49.205Z,16.23
2023-02-23T04:31:18.899Z,16.63
2023-02-23T04:33:46.625Z,16.75
2023-02-23T04:36:14.235Z,16.80
2023-02-23T04:38:41.793Z,16.70
2023-02-23T04:41:09.866Z,16.70
2023-02-23T04:43:37.418Z,16.75
2023-02-23T04:46:05.108Z,16.15
2023-02-23T04:48:32.718Z,16.70
2023-02-23T04:51:00.344Z,15.75
2023-02-23T04:53:28.123Z,17.02
2023-02-23T04:55:55.732Z,15.20
2023-02-23T04:58:23.294Z,16.13
2023-02-23T05:00:50.957Z,15.80
2023-02-23T05:03:18.514Z,16.17
2023-02-23T05:05:46.222Z,16.92
2023-02-23T05:08:13.794Z,16.45
2023-02-23T05:10:41.433Z,16.10
2023-02-23T05:13:09.043Z,16.02
2023-02-23T05:15:38.462Z,15.88
2023-02-23T05:18:07.214Z,16.98
2023-02-23T05:20:35.017Z,16.63
2023-02-23T05:23:02.577Z,16.30
2023-02-23T05:25:30.154Z,16.15
2023-02-23T05:27:57.714Z,15.90
2023-02-23T05:30:25.265Z,17.05
2023-02-23T05:32:52.996Z,16.90
2023-02-23T05:35:20.536Z,15.48
2023-02-23T05:37:48.092Z,16.77
2023-02-23T05:40:16.216Z,15.40
2023-02-23T05:42:43.745Z,15.52
2023-02-23T05:45:11.380Z,16.05
2023-02-23T05:47:39.091Z,15.73
2023-02-23T05:50:07.721Z,17.02
2023-02-23T05:52:38.921Z,17.05
2023-02-23T05:55:06.828Z,15.88
2023-02-23T05:57:34.394Z,15.38
2023-02-23T06:00:02.014Z,15.77
2023-02-23T06:02:32.192Z,15.93
2023-02-23T06:04:59.914Z,15.30
2023-02-23T06:07:27.474Z,15.93
2023-02-23T06:09:55.116Z,15.93
2023-02-23T06:12:23.717Z,15.88
2023-02-23T06:14:51.458Z,14.90
2023-02-23T06:17:19.133Z,15.38
2023-02-23T06:19:46.702Z,15.73
2023-02-23T06:22:14.316Z,12.93
2023-02-23T06:24:42.013Z,16.67
2023-02-23T06:27:09.579Z,15.45
2023-02-23T06:29:38.206Z,14.70
2023-02-23T06:32:05.966Z,15.27
2023-02-23T06:34:34.270Z,15.43
2023-02-23T06:37:01.927Z,14.70
2023-02-23T06:39:29.483Z,14.18
2023-02-23T06:41:57.028Z,13.90
2023-02-23T06:44:24.628Z,14.88
2023-02-23T06:46:52.295Z,14.32
2023-02-23T06:49:19.844Z,14.93
2023-02-23T06:51:47.560Z,13.73
2023-02-23T06:54:16.239Z,15.20
2023-02-23T06:56:43.906Z,15.45
2023-02-23T06:59:11.484Z,14.90
2023-02-23T07:01:39.074Z,14.75
2023-02-23T07:04:06.710Z,15.40
2023-02-23T07:06:34.273Z,15.00
2023-02-23T07:09:01.988Z,14.40
2023-02-23T07:11:29.582Z,14.70
2023-02-23T07:14:01.451Z,14.55
2023-02-23T07:16:29.669Z,14.52
2023-02-23T07:18:57.250Z,14.35
2023-02-23T07:21:24.814Z,15.07
2023-02-23T07:23:52.355Z,14.40
2023-02-23T07:26:19.905Z,14.85
2023-02-23T07:28:47.490Z,14.30
2023-02-23T07:31:15.147Z,13.32
2023-02-23T07:33:42.716Z,14.25
2023-02-23T07:36:10.758Z,14.15
2023-02-23T07:38:38.348Z,14.02
2023-02-23T07:41:06.259Z,13.82
2023-02-23T07:43:33.792Z,13.75
2023-02-23T07:46:01.934Z,13.30
2023-02-23T07:48:29.531Z,14.32
2023-02-23T07:50:57.127Z,13.45
2023-02-23T07:53:27.765Z,13.93
2023-02-23T07:55:58.804Z,14.57
2023-02-23T07:58:26.428Z,14.97
2023-02-23T08:00:54.024Z,14.13
2023-02-23T08:03:21.623Z,13.80
2023-02-23T08:05:49.149Z,13.77
2023-02-23T08:08:16.762Z,13.82
2023-02-23T08:10:44.325Z,13.65
2023-02-23T08:13:11.990Z,14.23
2023-02-23T08:15:39.576Z,12.57
2023-02-23T08:18:07.397Z,13.57
2023-02-23T08:20:34.957Z,13.63
2023-02-23T08:23:02.690Z,13.70
2023-02-23T08:25:30.407Z,14.05
2023-02-23T08:27:59.593Z,14.80
2023-02-23T08:30:27.218Z,14.02
2023-02-23T08:32:54.911Z,13.38
2023-02-23T08:35:22.845Z,13.77
2023-02-23T08:37:50.376Z,13.77
2023-02-23T08:40:19.774Z,14.25
2023-02-23T08:42:54.049Z,13.43
2023-02-23T08:45:21.752Z,14.07
2023-02-23T08:47:49.371Z,14.32
2023-02-23T08:50:16.944Z,13.70
2023-02-23T08:52:44.565Z,14.15
2023-02-23T08:55:13.799Z,14.07
2023-02-23T08:57:42.755Z,13.20
2023-02-23T09:00:16.851Z,13.80
2023-02-23T09:02:47.520Z,12.85
2023-02-23T09:05:15.537Z,13.10
2023-02-23T09:07:45.040Z,12.95
2023-02-23T09:10:14.226Z,12.98
2023-02-23T09:12:41.807Z,12.30
2023-02-23T09:15:10.049Z,12.48
2023-02-23T09:17:38.100Z,11.85
2023-02-23T09:20:06.066Z,12.82
2023-02-23T09:22:36.738Z,12.48
2023-02-23T09:25:04.940Z,12.27
2023-02-23T09:27:32.652Z,12.65
2023-02-23T09:30:00.228Z,12.27
2023-02-23T09:32:28.011Z,12.38
2023-02-23T09:34:55.665Z,12.05
2023-02-23T09:37:24.991Z,11.15
2023-02-23T09:39:52.634Z,10.93
2023-02-23T09:42:20.263Z,11.25
2023-02-23T09:45:06.753Z,11.75
2023-02-23T09:47:40.466Z,10.45
2023-02-23T09:50:26.372Z,9.30
2023-02-23T09:53:04.707Z,10.75
2023-02-23T09:55:32.897Z,10.05
2023-02-23T09:58:04.924Z,9.65
2023-02-23T10:00:34.990Z,9.65
2023-02-23T10:03:15.930Z,9.38
2023-02-23T10:05:48.936Z,10.65
2023-02-23T10:08:42.857Z,8.93
2023-02-23T10:11:28.841Z,8.88
2023-02-23T10:14:15.271Z,8.25
2023-02-23T10:16:51.717Z,8.43
2023-02-23T10:19:41.609Z,8.88
2023-02-23T10:22:09.856Z,8.65
2023-02-23T10:24:39.933Z,7.47
2023-02-23T10:27:15.839Z,6.90
2023-02-23T10:29:46.969Z,7.20
2023-02-23T10:32:19.793Z,7.30
2023-02-23T10:34:48.583Z,6.78
2023-02-23T10:37:18.027Z,7.05
2023-02-23T10:39:46.701Z,7.57
2023-02-23T10:42:17.822Z,6.60
2023-02-23T10:44:46.174Z,6.82
2023-02-23T10:47:16.268Z,7.13
2023-02-23T10:49:46.336Z,7.13
2023-02-23T10:52:16.410Z,7.45
2023-02-23T10:54:47.430Z,7.68
2023-02-23T10:57:21.253Z,8.37
2023-02-23T11:00:07.734Z,7.53
2023-02-23T11:02:36.468Z,6.30
2023-02-23T11:05:04.857Z,5.88
2023-02-23T11:07:35.712Z,6.72
2023-02-23T11:10:21.940Z,7.18
2023-02-23T11:12:49.628Z,6.13
2023-02-23T11:15:24.715Z,5.47
2023-02-23T11:17:59.298Z,6.22
2023-02-23T11:20:31.164Z,6.47
2023-02-23T11:25:34.098Z,6.97
2023-02-23T11:28:01.859Z,7.28
2023-02-23T11:30:37.500Z,7.22
2023-02-23T11:33:12.011Z,7.85
2023-02-23T11:35:39.718Z,7.75
2023-02-23T11:38:17.263Z,8.40
2023-02-23T11:40:58.782Z,8.57
2023-02-23T11:43:26.490Z,7.53
2023-02-23T11:45:58.955Z,7.00
2023-02-23T11:48:33.955Z,7.43
2023-02-23T11:51:02.105Z,8.32
2023-02-23T11:53:45.690Z,7.38
2023-02-23T11:56:20.284Z,6.70
2023-02-23T11:58:49.827Z,7.53
2023-02-23T12:01:20.918Z,7.10
2023-02-23T12:03:50.385Z,7.32
2023-02-23T12:06:38.213Z,7.03
2023-02-23T12:09:13.032Z,6.20
2023-02-23T12:11:45.320Z,8.32
2023-02-23T12:14:22.974Z,8.20
2023-02-23T12:16:53.119Z,7.05
2023-02-23T12:19:26.878Z,7.03
2023-02-23T12:21:59.719Z,6.93
2023-02-23T12:24:40.145Z,7.95
2023-02-23T12:27:12.690Z,6.88
2023-02-23T12:29:59.105Z,6.00
2023-02-23T12:32:41.578Z,5.93
2023-02-23T12:35:09.341Z,6.00
2023-02-23T12:37:42.493Z,5.55
2023-02-23T12:40:16.559Z,5.22
2023-02-23T12:42:54.765Z,5.45
2023-02-23T12:45:25.190Z,5.68
2023-02-23T12:47:57.206Z,5.13
2023-02-23T12:50:33.685Z,4.95
2023-02-23T12:53:06.885Z,4.88
2023-02-23T12:55:41.503Z,5.35
2023-02-23T12:58:18.799Z,4.78
2023-02-23T13:00:53.007Z,4.18
2023-02-23T13:03:34.132Z,4.32
2023-02-23T13:06:20.746Z,4.00
2023-02-23T13:08:59.296Z,4.30
2023-02-23T13:11:45.134Z,4.38
2023-02-23T13:14:43.119Z,4.10
2023-02-23T13:17:19.604Z,4.50
2023-02-23T13:19:52.823Z,4.00
2023-02-23T13:22:43.522Z,3.67
2023-02-23T13:25:20.925Z,3.17
2023-02-23T13:27:59.693Z,3.90
2023-02-23T13:30:27.481Z,3.80
2023-02-23T13:32:55.470Z,3.55
2023-02-23T13:35:23.169Z,2.67
2023-02-23T13:38:01.863Z,2.67
2023-02-23T13:40:34.713Z,2.90
2023-02-23T13:43:07.581Z,3.00
2023-02-23T13:45:35.317Z,2.70
2023-02-23T13:48:02.878Z,2.60
2023-02-23T13:50:54.657Z,2.22
2023-02-23T13:53:38.305Z,2.47
2023-02-23T13:56:24.691Z,2.17
2023-02-23T13:58:57.516Z,2.53
2023-02-23T14:01:32.826Z,2.22
2023-02-23T14:04:02.120Z,2.42
2023-02-23T14:06:31.468Z,2.22
2023-02-23T14:09:09.755Z,2.17
2023-02-23T14:11:45.382Z,2.30
2023-02-23T14:14:16.857Z,2.05
2023-02-23T14:16:46.351Z,2.35
2023-02-23T14:19:32.660Z,1.98
2023-02-23T14:22:03.499Z,2.00
2023-02-23T14:24:31.208Z,2.25
2023-02-23T14:27:06.398Z,2.13
2023-02-23T14:29:43.979Z,1.90
2023-02-23T14:32:11.755Z,2.10
2023-02-23T14:35:00.172Z,1.80
2023-02-23T14:37:27.811Z,2.58
2023-02-23T14:39:57.233Z,2.08
2023-02-23T14:42:29.902Z,1.90
2023-02-23T14:44:58.718Z,2.38
2023-02-23T14:47:27.944Z,2.70
2023-02-23T14:50:00.314Z,2.42
2023-02-23T14:52:27.846Z,2.20
2023-02-23T14:55:14.872Z,2.83
2023-02-23T14:57:43.586Z,2.75
2023-02-23T15:00:23.369Z,2.58
2023-02-23T15:03:01.276Z,2.30
2023-02-23T15:05:37.580Z,2.33
2023-02-23T15:08:06.563Z,2.78
2023-02-23T15:10:34.226Z,2.95
2023-02-23T15:13:08.194Z,2.67
2023-02-23T15:15:35.782Z,2.88
2023-02-23T15:18:04.478Z,2.78
2023-02-23T15:23:03.450Z,2.85
2023-02-23T15:25:38.810Z,2.63
2023-02-23T15:28:21.777Z,2.85
2023-02-23T15:30:50.019Z,2.47
2023-02-23T15:33:28.213Z,3.08
2023-02-23T15:35:58.558Z,2.80
2023-02-23T15:38:42.949Z,3.42
2023-02-23T15:41:38.213Z,3.67
2023-02-23T15:44:16.990Z,3.70
2023-02-23T15:46:45.966Z,3.20
2023-02-23T15:49:14.730Z,4.50
2023-02-23T15:51:48.631Z,3.53
2023-02-23T15:54:25.128Z,3.58
2023-02-23T15:56:57.071Z,3.72
2023-02-23T15:59:29.695Z,3.85
2023-02-23T16:02:01.504Z,3.00
2023-02-23T16:07:07.427Z,3.55
2023-02-23T16:09:38.105Z,3.22
2023-02-23T16:12:08.413Z,3.88
2023-02-23T16:14:43.411Z,3.42
2023-02-23T16:17:19.877Z,3.22
2023-02-23T16:19:47.554Z,4.10
2023-02-23T16:22:25.906Z,3.33
2023-02-23T16:24:57.379Z,3.72
2023-02-23T16:27:25.823Z,3.60
2023-02-23T16:30:00.213Z,3.70
2023-02-23T16:32:37.012Z,3.75
2023-02-23T16:35:15.853Z,3.58
2023-02-23T16:37:50.618Z,3.58
2023-02-23T16:40:18.576Z,3.60
2023-02-23T16:42:46.221Z,4.13
2023-02-23T16:45:17.493Z,4.07
2023-02-23T16:47:47.738Z,4.57
2023-02-23T16:50:20.288Z,3.40
2023-02-23T16:52:51.854Z,3.22
2023-02-23T16:55:25.323Z,3.10
2023-02-23T16:57:54.827Z,3.22
2023-02-23T17:00:24.715Z,3.88
2023-02-23T17:02:52.615Z,3.30
2023-02-23T17:05:23.633Z,4.25
2023-02-23T17:07:52.033Z,3.87
2023-02-23T17:10:27.160Z,3.80
2023-02-23T17:12:55.960Z,4.10
2023-02-23T17:15:24.842Z,3.47
2023-02-23T17:17:53.291Z,4.15
2023-02-23T17:20:21.235Z,4.07
2023-02-23T17:22:50.015Z,4.68
2023-02-23T17:25:17.747Z,3.95
2023-02-23T17:27:45.389Z,3.97
2023-02-23T17:30:13.260Z,4.28
2023-02-23T17:32:41.058Z,4.45
2023-02-23T17:35:09.020Z,4.40
2023-02-23T17:37:37.399Z,4.20
2023-02-23T17:40:06.640Z,4.03
2023-02-23T17:42:34.865Z,4.85
2023-02-23T17:45:03.556Z,4.53
2023-02-23T17:47:31.707Z,4.50
2023-02-23T17:49:59.756Z,4.47
2023-02-23T17:52:27.933Z,4.10
2023-02-23T17:54:55.767Z,4.95
2023-02-23T17:57:24.192Z,5.65
2023-02-23T17:59:52.251Z,6.30
2023-02-23T18:02:20.739Z,6.28
2023-02-23T18:04:49.107Z,5.55
2023-02-23T18:07:17.215Z,6.38
2023-02-23T18:09:44.958Z,6.70
2023-02-23T18:12:12.568Z,7.15
2023-02-23T18:14:40.090Z,6.82
2023-02-23T18:17:07.706Z,6.55
2023-02-23T18:19:35.349Z,6.45
2023-02-23T18:22:03.078Z,6.20
2023-02-23T18:24:33.526Z,6.50
2023-02-23T18:27:01.958Z,6.13
2023-02-23T18:29:30.609Z,5.93
2023-02-23T18:31:58.792Z,6.65
2023-02-23T18:34:27.733Z,6.35
2023-02-23T18:36:56.168Z,6.50
2023-02-23T18:39:23.831Z,6.28
2023-02-23T18:41:51.504Z,6.70
2023-02-23T18:44:19.092Z,5.82
2023-02-23T18:46:46.788Z,6.57
2023-02-23T18:49:15.906Z,6.20
2023-02-23T18:51:43.658Z,5.85
2023-02-23T18:54:16.673Z,7.53
2023-02-23T18:56:45.021Z,7.15
2023-02-23T18:59:12.998Z,6.82
2023-02-23T19:01:42.414Z,6.45
2023-02-23T19:04:11.065Z,6.55
2023-02-23T19:06:39.043Z,6.95
2023-02-23T19:09:09.672Z,7.13
2023-02-23T19:11:37.905Z,7.25
2023-02-23T19:14:07.407Z,7.80
2023-02-23T19:16:35.619Z,7.57
2023-02-23T19:19:04.572Z,7.47
2023-02-23T19:21:32.333Z,7.22
2023-02-23T19:24:02.230Z,8.20
2023-02-23T19:26:31.184Z,7.70
2023-02-23T19:28:58.813Z,8.27
2023-02-23T19:31:28.347Z,8.98
2023-02-23T19:33:57.249Z,9.50
2023-02-23T19:36:29.668Z,9.00
2023-02-23T19:39:05.772Z,8.80
2023-02-23T19:41:34.117Z,8.50
2023-02-23T19:44:01.766Z,8.93
2023-02-23T19:46:29.729Z,9.48
2023-02-23T19:48:57.440Z,11.25
2023-02-23T19:51:25.170Z,12.70
2023-02-23T19:53:56.228Z,12.63
2023-02-23T19:56:28.015Z,11.52
2023-02-23T20:01:27.257Z,11.55
2023-02-23T20:03:55.566Z,10.65
2023-02-23T20:06:24.852Z,11.68
2023-02-23T20:08:52.589Z,10.13
2023-02-23T20:11:20.699Z,10.75
2023-02-23T20:13:50.790Z,10.90
2023-02-23T20:16:18.574Z,12.82
2023-02-23T20:18:46.493Z,11.10
2023-02-23T20:21:15.665Z,11.55
2023-02-23T20:23:44.098Z,11.85
2023-02-23T20:26:14.588Z,12.15
2023-02-23T20:28:42.324Z,13.38
2023-02-23T20:31:17.683Z,12.77
2023-02-23T20:33:45.437Z,12.63
2023-02-23T20:36:13.030Z,11.40
2023-02-23T20:38:40.587Z,11.45
2023-02-23T20:41:08.184Z,11.75
2023-02-23T20:43:35.902Z,11.85
2023-02-23T20:46:03.503Z,13.25
2023-02-23T20:48:32.312Z,12.32
2023-02-23T20:51:01.382Z,12.38
2023-02-23T20:53:29.512Z,11.55
2023-02-23T20:55:57.225Z,12.65
2023-02-23T20:58:28.365Z,12.07
2023-02-23T21:00:57.071Z,12.60
2023-02-23T21:03:25.599Z,12.15
2023-02-23T21:05:53.444Z,11.52
2023-02-23T21:08:21.264Z,11.52
2023-02-23T21:10:50.133Z,12.05
2023-02-23T21:13:18.529Z,11.40
2023-02-23T21:15:46.394Z,11.45
2023-02-23T21:18:13.980Z,11.93
2023-02-23T21:20:41.960Z,12.57
2023-02-23T21:23:09.570Z,12.05
2023-02-23T21:25:37.937Z,11.82
2023-02-23T21:28:05.547Z,10.65
2023-02-23T21:30:33.133Z,11.95
2023-02-23T21:33:00.896Z,11.30
2023-02-23T21:35:28.607Z,11.80
2023-02-23T21:37:56.918Z,11.95
2023-02-23T21:40:24.887Z,11.38
2023-02-23T21:42:52.554Z,11.48
2023-02-23T21:45:20.400Z,10.90
2023-02-23T21:47:48.910Z,11.95
2023-02-23T21:50:17.863Z,11.15
2023-02-23T21:52:48.384Z,12.57
2023-02-23T21:55:24.503Z,10.95
2023-02-23T21:57:52.343Z,12.38
2023-02-23T22:00:20.869Z,11.98
2023-02-23T22:02:49.031Z,12.60
2023-02-23T22:05:17.253Z,11.40
2023-02-23T22:07:48.675Z,12.02
2023-02-23T22:10:17.135Z,12.52
2023-02-23T22:12:44.711Z,12.68
2023-02-23T22:15:12.486Z,12.68
2023-02-23T22:17:40.035Z,11.73
2023-02-23T22:20:08.317Z,11.57
2023-02-23T22:22:36.469Z,11.82
2023-02-23T22:25:05.162Z,11.20
2023-02-23T22:27:33.001Z,10.73
2023-02-23T22:30:01.787Z,10.82
2023-02-23T22:32:33.374Z,12.15
2023-02-23T22:35:01.594Z,11.32
2023-02-23T22:37:32.481Z,10.90
2023-02-23T22:40:16.346Z,10.90
2023-02-23T22:42:48.335Z,11.30
2023-02-23T22:45:16.649Z,11.65
2023-02-23T22:47:44.280Z,12.32
2023-02-23T22:50:18.928Z,11.93
2023-02-23T22:52:46.772Z,11.45
2023-02-23T22:55:14.315Z,11.52
2023-02-23T22:57:41.904Z,12.25
2023-02-23T23:00:10.836Z,11.80
2023-02-23T23:02:38.475Z,11.80
2023-02-23T23:05:06.668Z,11.23
2023-02-23T23:07:34.394Z,11.75
2023-02-23T23:10:09.289Z,10.93
2023-02-23T23:12:37.846Z,10.32
2023-02-23T23:15:07.126Z,10.80
2023-02-23T23:17:34.723Z,10.45
2023-02-23T23:20:02.903Z,11.10
2023-02-23T23:22:33.144Z,9.50
2023-02-23T23:25:00.702Z,9.70
2023-02-23T23:27:28.236Z,9.98
2023-02-23T23:29:55.868Z,9.93
2023-02-23T23:32:27.394Z,9.50
2023-02-23T23:34:57.631Z,10.27
2023-02-23T23:37:28.918Z,9.25
2023-02-23T23:40:02.028Z,9.93
2023-02-23T23:42:29.626Z,8.55
2023-02-23T23:44:57.164Z,8.68
2023-02-23T23:47:26.030Z,7.43
2023-02-23T23:49:54.660Z,7.85
2023-02-23T23:52:22.218Z,7.20
2023-02-23T23:54:49.897Z,6.82
2023-02-23T23:57:17.460Z,6.55
2023-02-23T23:59:45.950Z,6.72
